Time;durP1;ratioP1;P1;durP2;ratioP2;P2;SDS_P1;SDS_P2;PMS_P1;PMS_P2;Temp;Humidity;BMP_temperature;BMP_pressure;BME280_temperature;BME280_humidity;BME280_pressure;Samples;Min_cycle;Max_cycle;Signal;HPM_P1;HPM_P2
2021/11/02 00:05:13;;;;;;;3.20;2.00;;;18.20;60.30;;;;;;10521418;28;20586;-64
2021/11/02 00:10:35;;;;;;;4.27;2.27;;;18.20;60.10;;;;;;10534151;28;20241;-64
2021/11/02 00:16:04;;;;;;;2.87;1.70;;;18.20;60.30;;;;;;10526369;28;20215;-64
2021/11/02 00:21:28;;;;;;;3.10;2.20;;;18.20;60.30;;;;;;10533663;28;20697;-64
2021/11/02 00:26:50;;;;;;;4.33;2.00;;;18.20;60.10;;;;;;10492456;28;20217;-64
2021/11/02 00:32:14;;;;;;;2.93;1.80;;;18.10;60.00;;;;;;10493252;28;20203;-64
2021/11/02 00:37:36;;;;;;;3.53;2.00;;;18.20;60.00;;;;;;10493411;28;20217;-64
2021/11/02 00:43:00;;;;;;;2.63;1.70;;;18.10;59.80;;;;;;10493325;28;20212;-64
2021/11/02 00:48:26;;;;;;;3.47;1.90;;;18.20;60.40;;;;;;10493344;28;20212;-64
2021/11/02 00:53:48;;;;;;;1.97;1.60;;;18.10;59.70;;;;;;10508360;28;20238;-64
2021/11/02 00:59:10;;;;;;;3.80;1.90;;;18.10;59.60;;;;;;10499375;28;20223;-63
2021/11/02 01:04:34;;;;;;;3.70;1.50;;;18.10;59.40;;;;;;10498874;28;20228;-64
2021/11/02 01:09:56;;;;;;;4.37;1.93;;;18.10;59.40;;;;;;10498245;28;20259;-64
2021/11/02 01:15:20;;;;;;;4.80;1.70;;;18.10;59.40;;;;;;10500440;28;20207;-64
2021/11/02 01:20:44;;;;;;;2.93;1.57;;;18.10;59.40;;;;;;10518850;28;20215;-64
2021/11/02 01:26:06;;;;;;;3.80;1.77;;;18.10;59.50;;;;;;10507469;28;20216;-64
2021/11/02 01:31:28;;;;;;;2.60;1.53;;;18.10;59.30;;;;;;10497676;28;20228;-63
2021/11/02 01:36:52;;;;;;;2.70;1.60;;;18.10;59.20;;;;;;10499092;28;20192;-63
2021/11/02 01:42:14;;;;;;;3.77;1.33;;;18.10;59.20;;;;;;10497853;28;20289;-63
2021/11/02 01:47:41;;;;;;;2.33;1.73;;;18.10;59.30;;;;;;10497188;28;20214;-63
2021/11/02 01:53:05;;;;;;;2.10;1.30;;;18.10;59.20;;;;;;10505711;28;20184;-63
2021/11/02 01:58:27;;;;;;;1.60;1.23;;;18.10;59.10;;;;;;10535603;28;20226;-63
2021/11/02 02:04:00;;;;;;;3.90;1.57;;;18.10;59.10;;;;;;10538263;28;20234;-63
2021/11/02 02:09:33;;;;;;;2.90;1.33;;;18.10;59.00;;;;;;10516698;28;20224;-63
2021/11/02 02:15:03;;;;;;;1.80;1.10;;;18.10;58.80;;;;;;10504512;28;20230;-63
2021/11/02 02:20:43;;;;;;;2.60;1.27;;;18.00;58.90;;;;;;10495405;28;20224;-63
2021/11/02 02:26:13;;;;;;;2.80;1.47;;;18.10;59.00;;;;;;10531127;28;20702;-63
2021/11/02 02:31:41;;;;;;;3.10;1.60;;;18.00;58.80;;;;;;10536852;28;20226;-63
2021/11/02 02:37:05;;;;;;;3.23;1.77;;;18.10;59.00;;;;;;10537371;28;20188;-63
2021/11/02 02:42:28;;;;;;;3.20;1.60;;;18.00;59.10;;;;;;10536112;28;20208;-64
2021/11/02 02:47:52;;;;;;;2.50;1.40;;;18.00;59.00;;;;;;10536940;28;20214;-63
2021/11/02 02:53:14;;;;;;;2.23;1.27;;;18.00;58.90;;;;;;10532902;28;20192;-63
2021/11/02 02:58:40;;;;;;;3.33;1.70;;;18.00;59.00;;;;;;10534557;28;20717;-63
2021/11/02 03:04:07;;;;;;;3.23;1.60;;;18.00;59.60;;;;;;10535503;28;20215;-63
2021/11/02 03:09:30;;;;;;;2.27;1.23;;;18.00;58.80;;;;;;10535064;28;20215;-63
2021/11/02 03:15:06;;;;;;;3.90;1.40;;;18.00;58.80;;;;;;10536003;28;20857;-63
2021/11/02 03:43:43;;;;;;;1.70;1.30;;;18.00;58.60;;;;;;10535315;28;20218;-63
2021/11/02 03:49:10;;;;;;;4.57;1.57;;;18.00;58.60;;;;;;10535105;28;20211;-63
2021/11/02 03:54:43;;;;;;;3.83;1.40;;;18.00;58.70;;;;;;10534956;28;20279;-63
2021/11/02 05:09:04;;;;;;;3.27;1.33;;;18.10;57.20;;;;;;10498896;28;20203;-67
2021/11/02 05:20:49;;;;;;;3.43;1.67;;;18.10;57.00;;;;;;10498100;28;20575;-67
2021/11/02 05:49:10;;;;;;;2.20;1.57;;;18.00;56.90;;;;;;10457026;28;20205;-67
2021/11/02 06:00:17;;;;;;;3.30;1.50;;;18.00;57.00;;;;;;10456414;28;20749;-67
2021/11/02 06:05:51;;;;;;;2.30;1.33;;;18.00;56.80;;;;;;10456165;28;20290;-67
2021/11/02 06:23:20;;;;;;;2.17;1.40;;;17.90;56.50;;;;;;10452612;28;20228;-66
2021/11/02 06:28:40;;;;;;;2.57;1.33;;;17.90;57.00;;;;;;10413653;28;20236;-67
2021/11/02 06:34:10;;;;;;;2.27;1.57;;;17.90;57.00;;;;;;10439155;28;20205;-67
2021/11/02 06:39:54;;;;;;;5.30;2.87;;;17.90;56.70;;;;;;10453645;28;20515;-66
2021/11/02 07:19:56;;;;;;;4.70;3.50;;;18.70;54.30;;;;;;10431100;28;20267;-68
2021/11/02 07:25:29;;;;;;;4.23;2.80;;;18.50;54.90;;;;;;10440138;28;20279;-67
2021/11/02 08:45:53;;;;;;;15.50;3.30;;;18.00;59.60;;;;;;10448166;28;20584;-68
2021/11/02 08:51:17;;;;;;;12.43;2.83;;;18.00;59.70;;;;;;10456453;28;20684;-69
2021/11/02 08:56:40;;;;;;;9.80;2.40;;;18.00;59.80;;;;;;10441296;28;20201;-70
2021/11/02 09:02:07;;;;;;;12.35;3.20;;;18.00;59.60;;;;;;10437804;28;20419;-69
2021/11/02 09:07:30;;;;;;;7.67;2.57;;;18.70;57.30;;;;;;10444155;28;20224;-69
2021/11/02 09:12:54;;;;;;;7.93;2.43;;;18.30;58.50;;;;;;10435474;28;20201;-69
2021/11/02 09:18:20;;;;;;;4.33;2.00;;;18.20;59.20;;;;;;10443399;28;20581;-68
2021/11/02 09:23:43;;;;;;;8.90;2.33;;;18.10;59.60;;;;;;10448168;28;20703;-68
2021/11/02 09:29:06;;;;;;;7.43;2.37;;;18.10;60.00;;;;;;10452776;28;20561;-70
2021/11/02 09:34:30;;;;;;;5.17;1.93;;;18.10;60.30;;;;;;10449131;28;20208;-69
2021/11/02 09:39:54;;;;;;;5.67;1.80;;;18.10;60.70;;;;;;10446358;28;20248;-69
2021/11/02 09:45:29;;;;;;;3.20;1.87;;;18.00;60.90;;;;;;10452602;28;20220;-69
2021/11/02 09:51:33;;;;;;;3.00;1.77;;;18.00;61.30;;;;;;10455004;28;20220;-67
2021/11/02 09:57:17;;;;;;;5.03;1.90;;;18.00;61.40;;;;;;10449457;28;20224;-70
2021/11/02 10:03:10;;;;;;;3.50;2.13;;;18.00;61.70;;;;;;10412962;28;20189;-70
2021/11/02 10:08:44;;;;;;;2.90;1.90;;;18.00;61.70;;;;;;10442417;28;20229;-69
2021/11/02 10:14:32;;;;;;;5.30;2.13;;;18.00;61.60;;;;;;10444730;28;20196;-69
2021/11/02 10:20:07;;;;;;;3.80;1.83;;;18.10;61.40;;;;;;10427411;28;20743;-69
2021/11/02 10:26:05;;;;;;;5.73;1.70;;;18.10;61.20;;;;;;10447816;28;20214;-68
2021/11/02 10:31:34;;;;;;;2.03;1.40;;;18.20;61.40;;;;;;10423896;28;20804;-68
2021/11/02 10:37:07;;;;;;;3.43;1.67;;;18.30;61.80;;;;;;10435055;28;20743;-68
2021/11/02 10:42:45;;;;;;;5.20;1.80;;;18.30;61.10;;;;;;10540569;22;20242;-69
2021/11/02 10:48:10;;;;;;;4.43;1.53;;;18.30;61.60;;;;;;10531095;28;20219;-70
2021/11/02 10:53:36;;;;;;;4.87;1.67;;;18.40;61.90;;;;;;10468602;28;20294;-69
2021/11/02 10:59:02;;;;;;;4.57;1.70;;;18.40;61.20;;;;;;10481132;28;20591;-69
2021/11/02 11:04:28;;;;;;;3.63;1.73;;;18.40;61.20;;;;;;10471291;28;20216;-69
2021/11/02 11:09:53;;;;;;;3.17;1.47;;;18.40;61.10;;;;;;10491937;28;20634;-69
2021/11/02 11:15:17;;;;;;;2.90;1.50;;;18.40;61.30;;;;;;10492938;28;20195;-69
2021/11/02 11:20:41;;;;;;;3.73;1.50;;;18.40;61.10;;;;;;10473351;28;20205;-70
2021/11/02 11:26:06;;;;;;;2.43;1.20;;;18.40;60.70;;;;;;10510794;28;20254;-70
2021/11/02 11:31:30;;;;;;;2.47;1.37;;;18.40;60.90;;;;;;10508858;28;20208;-68
2021/11/02 11:36:59;;;;;;;2.33;1.30;;;18.40;60.90;;;;;;10485872;28;20200;-68
2021/11/02 11:42:25;;;;;;;2.73;1.30;;;18.40;61.10;;;;;;10527782;28;20218;-68
2021/11/02 11:48:06;;;;;;;2.53;1.43;;;18.40;60.80;;;;;;10538085;28;20222;-70
2021/11/02 11:53:30;;;;;;;2.67;1.17;;;18.40;60.30;;;;;;10531850;28;20194;-71
2021/11/02 11:58:56;;;;;;;4.40;1.20;;;18.40;60.70;;;;;;10533483;28;20594;-69
2021/11/02 12:04:23;;;;;;;3.70;1.10;;;18.40;60.50;;;;;;10529336;28;20573;-71
2021/11/02 12:09:47;;;;;;;1.80;0.93;;;18.40;60.60;;;;;;10531774;28;20594;-70
2021/11/02 12:15:11;;;;;;;1.93;1.30;;;18.40;60.60;;;;;;10530522;28;20187;-70
2021/11/02 12:20:36;;;;;;;3.93;1.40;;;18.40;60.50;;;;;;10532852;28;20694;-71
2021/11/02 12:25:59;;;;;;;2.87;1.13;;;18.40;60.10;;;;;;10524654;28;20212;-70
2021/11/02 12:31:26;;;;;;;2.33;1.47;;;18.40;60.40;;;;;;10529188;28;20226;-70
2021/11/02 12:36:51;;;;;;;2.27;1.60;;;18.40;59.60;;;;;;10500650;28;20193;-70
2021/11/02 12:42:16;;;;;;;3.27;1.53;;;18.40;59.40;;;;;;10514729;28;20220;-70
2021/11/02 12:47:39;;;;;;;4.63;2.00;;;18.40;59.70;;;;;;10514676;28;20215;-70
2021/11/02 12:53:04;;;;;;;2.23;1.43;;;18.40;59.80;;;;;;10522184;28;20214;-69
2021/11/02 12:58:27;;;;;;;3.43;1.70;;;18.40;59.80;;;;;;10525082;28;20197;-70
2021/11/02 13:03:55;;;;;;;3.77;1.50;;;18.30;60.00;;;;;;10525845;28;20215;-69
2021/11/02 13:09:20;;;;;;;3.50;1.60;;;18.30;60.30;;;;;;10525974;28;20216;-68
2021/11/02 13:14:43;;;;;;;3.53;1.80;;;18.30;60.40;;;;;;10520825;28;20202;-69
2021/11/02 13:20:06;;;;;;;3.80;1.57;;;18.30;60.70;;;;;;10521816;28;20224;-68
2021/11/02 13:25:37;;;;;;;3.37;1.80;;;18.30;61.00;;;;;;10534435;28;20215;-70
2021/11/02 13:31:00;;;;;;;3.77;1.43;;;18.30;61.10;;;;;;10522662;28;20235;-68
2021/11/02 13:36:22;;;;;;;1.60;1.20;;;18.20;61.20;;;;;;10533466;28;20188;-67
2021/11/02 13:41:49;;;;;;;2.10;1.20;;;18.20;61.10;;;;;;10525799;28;20608;-70
2021/11/02 13:47:12;;;;;;;2.47;1.30;;;18.30;60.90;;;;;;10524865;28;20219;-71
2021/11/02 13:52:35;;;;;;;3.20;1.23;;;18.30;60.90;;;;;;10517388;28;20969;-68
2021/11/02 13:57:58;;;;;;;2.80;1.37;;;18.30;61.80;;;;;;10503941;28;20204;-68
2021/11/02 14:03:25;;;;;;;2.07;1.10;;;18.40;61.70;;;;;;10517495;28;20608;-68
2021/11/02 14:08:48;;;;;;;2.03;0.97;;;18.30;62.00;;;;;;10515051;28;20222;-68
2021/11/02 14:14:28;;;;;;;2.63;1.53;;;18.40;62.20;;;;;;10532443;28;20207;-69
2021/11/02 14:19:51;;;;;;;3.37;1.80;;;18.40;61.80;;;;;;10522946;28;20216;-69
2021/11/02 14:25:14;;;;;;;2.67;1.90;;;18.40;61.60;;;;;;10535165;28;20219;-69
2021/11/02 14:30:40;;;;;;;2.60;1.60;;;18.50;61.00;;;;;;10524708;28;20224;-69
2021/11/02 14:36:03;;;;;;;3.83;1.63;;;18.40;60.70;;;;;;10521554;28;20200;-69
2021/11/02 14:41:32;;;;;;;4.40;1.97;;;18.40;61.10;;;;;;10535693;28;20230;-68
2021/11/02 14:46:56;;;;;;;2.87;1.70;;;18.40;61.10;;;;;;10525725;28;20222;-66
2021/11/02 14:52:26;;;;;;;3.33;1.47;;;18.40;60.50;;;;;;10522253;28;20239;-66
2021/11/02 14:57:53;;;;;;;5.28;1.70;;;18.50;60.50;;;;;;10519876;28;20784;-67
2021/11/02 15:03:22;;;;;;;6.73;1.90;;;19.00;58.80;;;;;;10521807;28;20697;-67
2021/11/02 15:08:46;;;;;;;2.67;1.33;;;18.70;60.50;;;;;;10526345;28;20223;-68
2021/11/02 15:14:13;;;;;;;3.30;1.30;;;18.60;61.60;;;;;;10504532;28;20200;-68
2021/11/02 15:19:38;;;;;;;3.80;1.40;;;18.50;61.70;;;;;;10493979;28;20636;-68
2021/11/02 15:25:03;;;;;;;1.30;1.00;;;18.50;61.70;;;;;;10520832;28;20212;-68
2021/11/02 15:30:25;;;;;;;2.30;1.30;;;18.50;61.70;;;;;;10536086;28;20666;-68
2021/11/02 15:35:49;;;;;;;7.13;1.53;;;18.50;61.50;;;;;;10535112;28;20252;-68
2021/11/02 15:41:22;;;;;;;1.60;1.10;;;18.50;61.60;;;;;;10535405;28;20310;-67
2021/11/02 15:46:44;;;;;;;1.80;1.10;;;18.50;61.70;;;;;;10516894;28;20219;-68
2021/11/02 15:52:09;;;;;;;3.47;1.20;;;18.50;61.80;;;;;;10492819;28;20618;-68
2021/11/02 15:57:40;;;;;;;2.03;1.30;;;18.50;61.50;;;;;;10494367;28;20199;-68
2021/11/02 16:03:03;;;;;;;3.43;1.43;;;18.50;61.40;;;;;;10501598;28;20208;-68
2021/11/02 16:08:26;;;;;;;1.63;1.20;;;18.50;61.40;;;;;;10522812;28;20219;-68
2021/11/02 16:13:48;;;;;;;3.57;1.40;;;18.50;61.40;;;;;;10535363;28;20199;-68
2021/11/02 16:19:10;;;;;;;1.50;1.00;;;18.50;61.40;;;;;;10534841;28;20212;-67
2021/11/02 16:24:36;;;;;;;2.70;1.30;;;18.50;61.20;;;;;;10511518;28;20207;-68
2021/11/02 16:29:59;;;;;;;2.23;1.30;;;18.50;61.20;;;;;;10516465;28;20231;-69
2021/11/02 16:35:40;;;;;;;3.08;1.40;;;18.50;61.20;;;;;;10499986;28;20763;-68
2021/11/02 16:41:05;;;;;;;1.97;1.37;;;18.60;61.60;;;;;;10521268;22;20225;-65
2021/11/02 16:46:29;;;;;;;2.83;1.57;;;18.50;60.80;;;;;;10458084;28;20338;-65
2021/11/02 16:51:53;;;;;;;3.33;1.63;;;18.50;60.80;;;;;;10425640;28;20220;-66
2021/11/02 16:57:25;;;;;;;2.20;1.33;;;18.50;61.00;;;;;;10417079;28;20282;-68
2021/11/02 17:02:48;;;;;;;3.73;1.63;;;18.50;61.20;;;;;;10416050;28;20209;-66
2021/11/02 17:08:12;;;;;;;4.27;1.57;;;18.50;60.80;;;;;;10439039;28;20213;-66
2021/11/02 17:13:38;;;;;;;3.97;1.23;;;18.50;60.90;;;;;;10413682;28;20621;-67
2021/11/02 17:19:04;;;;;;;4.23;1.90;;;18.50;60.70;;;;;;10415574;28;20243;-66
2021/11/02 17:24:29;;;;;;;4.03;2.47;;;18.50;60.70;;;;;;10414915;28;20194;-67
2021/11/02 17:29:53;;;;;;;5.37;2.20;;;18.50;60.00;;;;;;10415272;28;20269;-68
2021/11/02 17:35:17;;;;;;;8.50;3.30;;;18.50;60.10;;;;;;10411890;28;20283;-67
2021/11/02 17:40:40;;;;;;;6.70;3.47;;;18.50;59.90;;;;;;10412827;28;20225;-67
2021/11/02 17:46:06;;;;;;;4.10;2.83;;;18.50;59.70;;;;;;10414116;28;20213;-67
2021/11/02 17:51:28;;;;;;;4.80;3.47;;;18.50;59.80;;;;;;10415008;28;20221;-64
2021/11/02 17:56:53;;;;;;;6.20;3.30;;;18.40;59.40;;;;;;10414433;28;20197;-65
2021/11/02 18:02:18;;;;;;;4.80;3.60;;;18.40;59.60;;;;;;10413481;28;20225;-64
2021/11/02 18:07:41;;;;;;;9.03;3.97;;;18.40;59.50;;;;;;10413750;28;20291;-63
2021/11/02 18:13:06;;;;;;;5.00;3.63;;;18.40;59.40;;;;;;10413628;28;20221;-64
2021/11/02 18:18:37;;;;;;;6.83;4.60;;;18.30;59.60;;;;;;10414643;28;20294;-62
2021/11/02 18:24:01;;;;;;;6.67;4.27;;;18.30;59.90;;;;;;10413791;28;20591;-64
2021/11/02 18:29:24;;;;;;;5.27;4.17;;;18.20;59.80;;;;;;10412247;28;20232;-65
2021/11/02 18:34:48;;;;;;;7.73;5.20;;;18.20;59.80;;;;;;10404515;28;20559;-66
2021/11/02 18:40:11;;;;;;;8.40;5.60;;;18.20;59.90;;;;;;10411833;28;20214;-67
2021/11/02 18:45:34;;;;;;;8.53;5.93;;;18.10;59.80;;;;;;10416103;28;20201;-64
2021/11/02 18:50:58;;;;;;;9.33;6.80;;;18.10;59.80;;;;;;10411155;28;20686;-65
2021/11/02 18:56:21;;;;;;;8.57;6.40;;;18.10;59.90;;;;;;10409223;28;20675;-64
2021/11/02 19:01:44;;;;;;;9.53;6.33;;;18.10;60.60;;;;;;10412354;28;20222;-64
2021/11/02 19:07:07;;;;;;;10.40;8.50;;;18.00;60.90;;;;;;10411807;28;20292;-66
2021/11/02 19:12:30;;;;;;;10.20;8.60;;;18.00;60.80;;;;;;10433789;28;20214;-65
2021/11/02 19:17:52;;;;;;;12.80;9.57;;;18.00;60.40;;;;;;10411443;28;20208;-66
2021/11/02 19:23:16;;;;;;;11.40;8.90;;;18.10;60.50;;;;;;10408722;28;20224;-69
2021/11/02 19:28:39;;;;;;;12.67;8.87;;;18.20;60.30;;;;;;10408491;28;20599;-63
2021/11/02 19:34:02;;;;;;;12.47;9.13;;;18.30;60.70;;;;;;10410343;28;20328;-66
2021/11/02 19:39:26;;;;;;;11.57;8.57;;;18.40;60.00;;;;;;10408661;28;20209;-63
2021/11/02 19:44:48;;;;;;;10.73;7.90;;;18.40;59.80;;;;;;10407306;28;20186;-64
2021/11/02 19:50:11;;;;;;;10.53;8.20;;;18.40;59.70;;;;;;10406177;28;20719;-65
2021/11/02 19:55:37;;;;;;;10.43;8.17;;;18.40;59.70;;;;;;10408715;28;20200;-64
2021/11/02 20:00:59;;;;;;;9.93;7.77;;;18.40;59.60;;;;;;10408599;28;20568;-64
2021/11/02 20:06:25;;;;;;;10.97;8.37;;;18.30;59.60;;;;;;10416471;28;20217;-65
2021/11/02 20:11:51;;;;;;;11.27;8.13;;;18.30;59.60;;;;;;10397112;28;20225;-64
2021/11/02 20:17:15;;;;;;;10.33;7.97;;;18.30;59.40;;;;;;10417276;28;20208;-64
2021/11/02 20:22:37;;;;;;;12.10;7.93;;;18.30;58.90;;;;;;10416178;28;20213;-65
2021/11/02 20:28:03;;;;;;;11.03;7.93;;;18.30;57.60;;;;;;10415792;28;20212;-64
2021/11/02 20:33:25;;;;;;;12.73;7.93;;;18.30;55.30;;;;;;10415755;28;20198;-65
2021/11/02 20:38:49;;;;;;;13.23;7.73;;;18.40;55.00;;;;;;10415803;28;20206;-65
2021/11/02 20:44:14;;;;;;;11.83;8.03;;;18.40;54.70;;;;;;10419311;28;20204;-65
2021/11/02 20:49:37;;;;;;;9.97;7.20;;;18.40;54.90;;;;;;10415439;28;20237;-65
2021/11/02 20:55:00;;;;;;;11.27;7.80;;;18.30;55.10;;;;;;10414312;28;20190;-64
2021/11/02 21:00:23;;;;;;;12.00;7.10;;;18.20;55.50;;;;;;10413783;28;20217;-64
2021/11/02 21:05:47;;;;;;;8.90;7.43;;;18.20;55.90;;;;;;10404713;28;20202;-64
2021/11/02 21:11:11;;;;;;;9.40;6.97;;;18.20;56.20;;;;;;10412578;28;20210;-65
2021/11/02 21:16:36;;;;;;;9.80;7.37;;;18.10;56.30;;;;;;10415130;28;20525;-64
2021/11/02 21:22:00;;;;;;;9.07;6.60;;;18.10;56.50;;;;;;10410861;28;20214;-65
2021/11/02 21:27:24;;;;;;;8.90;6.57;;;18.10;56.60;;;;;;10413928;28;20213;-65
2021/11/02 21:32:50;;;;;;;7.67;6.40;;;18.10;56.70;;;;;;10411895;28;20280;-65
2021/11/02 21:38:12;;;;;;;10.00;7.30;;;18.10;56.70;;;;;;10411217;28;20270;-64
2021/11/02 21:43:40;;;;;;;8.40;5.53;;;18.00;56.80;;;;;;10412666;28;20206;-65
2021/11/02 21:49:13;;;;;;;7.73;5.90;;;18.00;56.80;;;;;;10410450;28;20209;-64
2021/11/02 21:54:40;;;;;;;7.10;5.60;;;18.00;56.90;;;;;;10412688;28;20567;-65
2021/11/02 22:00:05;;;;;;;9.17;5.70;;;17.90;57.00;;;;;;10409993;28;20220;-65
2021/11/02 22:05:30;;;;;;;7.53;5.33;;;17.90;57.00;;;;;;10398955;28;20549;-64
2021/11/02 22:10:53;;;;;;;7.83;5.57;;;17.90;57.00;;;;;;10411553;28;20599;-65
2021/11/02 22:16:15;;;;;;;7.70;5.47;;;17.90;57.10;;;;;;10392154;28;20300;-66
2021/11/02 22:21:39;;;;;;;6.60;5.37;;;17.90;57.10;;;;;;10412021;28;20217;-64
2021/11/02 22:27:01;;;;;;;7.63;5.57;;;17.90;57.00;;;;;;10409304;28;20221;-64
2021/11/02 22:32:24;;;;;;;6.67;5.07;;;17.90;56.50;;;;;;10409949;28;20206;-64
2021/11/02 22:37:47;;;;;;;7.03;5.57;;;17.90;56.30;;;;;;10411420;28;20202;-64
2021/11/02 22:43:12;;;;;;;7.60;5.23;;;18.00;56.20;;;;;;10449539;28;20205;-64
2021/11/02 22:48:36;;;;;;;6.73;5.27;;;17.90;56.50;;;;;;10516291;22;20236;-65
2021/11/02 22:54:02;;;;;;;7.17;5.30;;;17.90;56.40;;;;;;10494122;28;20239;-65
2021/11/02 22:59:24;;;;;;;6.57;4.93;;;18.00;56.60;;;;;;10494359;28;20189;-65
2021/11/02 23:04:46;;;;;;;6.23;4.67;;;17.90;56.50;;;;;;10494478;28;20220;-64
2021/11/02 23:10:10;;;;;;;5.83;4.63;;;17.90;56.60;;;;;;10495236;28;20212;-64
2021/11/02 23:15:33;;;;;;;6.43;4.70;;;17.90;56.80;;;;;;10494052;28;20217;-64
2021/11/02 23:20:55;;;;;;;5.33;3.93;;;17.90;57.00;;;;;;10495185;28;20199;-65
2021/11/02 23:26:23;;;;;;;5.57;4.33;;;17.90;57.10;;;;;;10493688;28;20219;-65
2021/11/02 23:31:46;;;;;;;6.40;4.17;;;17.90;57.20;;;;;;10499183;28;20781;-65
2021/11/02 23:37:09;;;;;;;5.40;4.30;;;17.90;57.20;;;;;;10466384;28;20217;-64
2021/11/02 23:42:33;;;;;;;5.10;3.93;;;17.90;57.20;;;;;;10451912;28;20204;-64
2021/11/02 23:47:55;;;;;;;4.60;3.77;;;17.90;57.60;;;;;;10451116;28;20224;-65
2021/11/02 23:53:19;;;;;;;5.63;3.67;;;17.90;57.70;;;;;;10451677;28;20197;-65
2021/11/02 23:58:43;;;;;;;3.90;3.20;;;17.90;57.90;;;;;;10451492;28;20616;-64
